Lundin Links, United Kingdom
Current Conditions -  °F | °C
As of 7:50 AM on Monday 26 Jan 2015 (Local Time) from EGQL Reporting Station
Few Clouds Few Clouds  
Wind Chill: 30°   Ceiling: Unl
Heat Index: 37°   Visibility: 6mi
Dew Point: 32°   Wind: 10mph
Humidity: 81%   Direction: 260°W
Pressure: 29.97"   Gusts: NA
Location:  56.21°N, 2.95°W
Report Text: EGQL 260750Z 26009KT 9999 FEW018 03/00 Q1015 BLU
Loading
Personal Weather Stations






























Interactive Weather Map New forecast layout! Learn more

10-Day Weather Forecast

Advertisements
Track Severe Weather on mobile